sensor_id;sensor_type;location;lat;lon;timestamp;P1;durP1;ratioP1;P2;durP2;ratioP2
18042;SDS011;9146;48.074;11.968;2023-04-25T00:00:02;4.53;;;3.67;;
18042;SDS011;9146;48.074;11.968;2023-04-25T00:02:31;3.77;;;3.47;;
18042;SDS011;9146;48.074;11.968;2023-04-25T00:04:59;3.80;;;3.50;;
18042;SDS011;9146;48.074;11.968;2023-04-25T00:07:26;3.60;;;3.30;;
18042;SDS011;9146;48.074;11.968;2023-04-25T00:09:53;5.00;;;3.13;;
18042;SDS011;9146;48.074;11.968;2023-04-25T00:12:22;3.23;;;2.93;;
18042;SDS011;9146;48.074;11.968;2023-04-25T00:14:48;3.40;;;3.10;;
18042;SDS011;9146;48.074;11.968;2023-04-25T00:17:16;3.30;;;3.00;;
18042;SDS011;9146;48.074;11.968;2023-04-25T00:19:44;2.67;;;2.47;;
18042;SDS011;9146;48.074;11.968;2023-04-25T00:22:11;5.80;;;2.90;;
18042;SDS011;9146;48.074;11.968;2023-04-25T00:24:38;3.20;;;2.97;;
18042;SDS011;9146;48.074;11.968;2023-04-25T00:27:05;2.60;;;2.40;;
18042;SDS011;9146;48.074;11.968;2023-04-25T00:29:33;2.83;;;2.50;;
18042;SDS011;9146;48.074;11.968;2023-04-25T00:32:01;2.57;;;2.37;;
18042;SDS011;9146;48.074;11.968;2023-04-25T00:34:28;3.17;;;2.97;;
18042;SDS011;9146;48.074;11.968;2023-04-25T00:36:55;3.30;;;3.10;;
18042;SDS011;9146;48.074;11.968;2023-04-25T00:39:22;4.20;;;3.03;;
18042;SDS011;9146;48.074;11.968;2023-04-25T00:41:49;3.37;;;3.00;;
18042;SDS011;9146;48.074;11.968;2023-04-25T00:44:19;1.90;;;1.80;;
18042;SDS011;9146;48.074;11.968;2023-04-25T00:46:48;2.67;;;2.47;;
18042;SDS011;9146;48.074;11.968;2023-04-25T00:49:15;3.23;;;2.47;;
18042;SDS011;9146;48.074;11.968;2023-04-25T00:51:42;3.23;;;2.50;;
18042;SDS011;9146;48.074;11.968;2023-04-25T00:54:10;2.40;;;2.23;;
18042;SDS011;9146;48.074;11.968;2023-04-25T00:56:38;2.33;;;2.20;;
18042;SDS011;9146;48.074;11.968;2023-04-25T00:59:05;2.13;;;2.00;;
18042;SDS011;9146;48.074;11.968;2023-04-25T01:01:33;2.60;;;2.30;;
18042;SDS011;9146;48.074;11.968;2023-04-25T01:04:01;6.57;;;2.17;;
18042;SDS011;9146;48.074;11.968;2023-04-25T01:06:28;3.90;;;2.03;;
18042;SDS011;9146;48.074;11.968;2023-04-25T01:08:56;2.03;;;1.93;;
18042;SDS011;9146;48.074;11.968;2023-04-25T01:11:23;6.13;;;1.90;;
18042;SDS011;9146;48.074;11.968;2023-04-25T01:13:50;2.33;;;2.00;;
18042;SDS011;9146;48.074;11.968;2023-04-25T01:16:17;2.00;;;1.90;;
18042;SDS011;9146;48.074;11.968;2023-04-25T01:18:45;1.70;;;1.70;;
18042;SDS011;9146;48.074;11.968;2023-04-25T01:21:14;2.33;;;2.20;;
18042;SDS011;9146;48.074;11.968;2023-04-25T01:23:41;2.30;;;2.10;;
18042;SDS011;9146;48.074;11.968;2023-04-25T01:26:08;1.97;;;1.87;;
18042;SDS011;9146;48.074;11.968;2023-04-25T01:28:37;2.33;;;1.80;;
18042;SDS011;9146;48.074;11.968;2023-04-25T01:31:06;3.97;;;2.30;;
18042;SDS011;9146;48.074;11.968;2023-04-25T01:33:33;2.33;;;2.23;;
18042;SDS011;9146;48.074;11.968;2023-04-25T01:35:59;2.40;;;2.20;;
18042;SDS011;9146;48.074;11.968;2023-04-25T01:38:28;2.20;;;2.00;;
18042;SDS011;9146;48.074;11.968;2023-04-25T01:40:55;2.90;;;2.00;;
18042;SDS011;9146;48.074;11.968;2023-04-25T01:43:22;2.40;;;2.17;;
18042;SDS011;9146;48.074;11.968;2023-04-25T01:45:49;2.43;;;2.20;;
18042;SDS011;9146;48.074;11.968;2023-04-25T01:48:16;4.00;;;2.37;;
18042;SDS011;9146;48.074;11.968;2023-04-25T01:50:44;2.07;;;1.97;;
18042;SDS011;9146;48.074;11.968;2023-04-25T01:53:11;2.67;;;2.23;;
18042;SDS011;9146;48.074;11.968;2023-04-25T01:55:41;2.13;;;1.93;;
18042;SDS011;9146;48.074;11.968;2023-04-25T01:58:08;2.20;;;1.87;;
18042;SDS011;9146;48.074;11.968;2023-04-25T02:00:37;2.03;;;1.93;;
18042;SDS011;9146;48.074;11.968;2023-04-25T02:03:05;1.87;;;1.77;;
18042;SDS011;9146;48.074;11.968;2023-04-25T02:05:36;1.97;;;1.87;;
18042;SDS011;9146;48.074;11.968;2023-04-25T02:08:04;1.93;;;1.80;;
18042;SDS011;9146;48.074;11.968;2023-04-25T02:10:32;2.13;;;1.93;;
18042;SDS011;9146;48.074;11.968;2023-04-25T02:13:00;3.03;;;1.87;;
18042;SDS011;9146;48.074;11.968;2023-04-25T02:15:29;2.03;;;1.60;;
18042;SDS011;9146;48.074;11.968;2023-04-25T02:17:56;1.70;;;1.60;;
18042;SDS011;9146;48.074;11.968;2023-04-25T02:20:26;2.43;;;2.00;;
18042;SDS011;9146;48.074;11.968;2023-04-25T02:22:53;2.17;;;1.80;;
18042;SDS011;9146;48.074;11.968;2023-04-25T02:25:20;1.80;;;1.70;;
18042;SDS011;9146;48.074;11.968;2023-04-25T02:27:48;3.73;;;3.53;;
18042;SDS011;9146;48.074;11.968;2023-04-25T02:30:17;2.60;;;2.40;;
18042;SDS011;9146;48.074;11.968;2023-04-25T02:32:44;2.60;;;2.40;;
18042;SDS011;9146;48.074;11.968;2023-04-25T02:35:12;2.30;;;2.03;;
18042;SDS011;9146;48.074;11.968;2023-04-25T02:37:39;2.70;;;1.83;;
18042;SDS011;9146;48.074;11.968;2023-04-25T02:40:06;1.93;;;1.70;;
18042;SDS011;9146;48.074;11.968;2023-04-25T02:42:34;3.20;;;1.90;;
18042;SDS011;9146;48.074;11.968;2023-04-25T02:45:01;2.30;;;2.10;;
18042;SDS011;9146;48.074;11.968;2023-04-25T02:47:30;2.70;;;2.30;;
18042;SDS011;9146;48.074;11.968;2023-04-25T02:49:57;2.10;;;2.00;;
18042;SDS011;9146;48.074;11.968;2023-04-25T02:52:24;1.80;;;1.70;;
18042;SDS011;9146;48.074;11.968;2023-04-25T02:54:51;2.10;;;1.83;;
18042;SDS011;9146;48.074;11.968;2023-04-25T02:57:18;1.80;;;1.70;;
18042;SDS011;9146;48.074;11.968;2023-04-25T02:59:45;3.87;;;2.30;;
18042;SDS011;9146;48.074;11.968;2023-04-25T03:02:12;3.40;;;2.13;;
18042;SDS011;9146;48.074;11.968;2023-04-25T03:04:42;1.70;;;1.60;;
18042;SDS011;9146;48.074;11.968;2023-04-25T03:07:09;2.63;;;2.43;;
18042;SDS011;9146;48.074;11.968;2023-04-25T03:09:36;2.40;;;1.87;;
18042;SDS011;9146;48.074;11.968;2023-04-25T03:12:03;2.37;;;2.17;;
18042;SDS011;9146;48.074;11.968;2023-04-25T03:14:30;1.97;;;1.87;;
18042;SDS011;9146;48.074;11.968;2023-04-25T03:16:57;2.30;;;2.20;;
18042;SDS011;9146;48.074;11.968;2023-04-25T03:19:24;2.67;;;2.40;;
18042;SDS011;9146;48.074;11.968;2023-04-25T03:21:52;5.50;;;2.87;;
18042;SDS011;9146;48.074;11.968;2023-04-25T03:24:19;2.13;;;1.93;;
18042;SDS011;9146;48.074;11.968;2023-04-25T03:26:49;3.63;;;2.20;;
18042;SDS011;9146;48.074;11.968;2023-04-25T03:29:16;2.10;;;2.00;;
18042;SDS011;9146;48.074;11.968;2023-04-25T03:31:43;5.33;;;1.97;;
18042;SDS011;9146;48.074;11.968;2023-04-25T03:34:10;3.23;;;1.80;;
18042;SDS011;9146;48.074;11.968;2023-04-25T03:36:39;2.60;;;2.13;;
18042;SDS011;9146;48.074;11.968;2023-04-25T03:39:08;1.83;;;1.73;;
18042;SDS011;9146;48.074;11.968;2023-04-25T03:41:35;2.30;;;2.10;;
18042;SDS011;9146;48.074;11.968;2023-04-25T03:44:02;2.40;;;2.20;;
18042;SDS011;9146;48.074;11.968;2023-04-25T03:46:30;3.53;;;3.23;;
18042;SDS011;9146;48.074;11.968;2023-04-25T03:48:57;2.83;;;2.10;;
18042;SDS011;9146;48.074;11.968;2023-04-25T03:51:24;6.90;;;2.97;;
18042;SDS011;9146;48.074;11.968;2023-04-25T03:53:51;3.33;;;2.70;;
18042;SDS011;9146;48.074;11.968;2023-04-25T03:56:20;3.03;;;1.83;;
18042;SDS011;9146;48.074;11.968;2023-04-25T03:58:47;2.10;;;2.00;;
18042;SDS011;9146;48.074;11.968;2023-04-25T04:01:14;4.30;;;2.67;;
18042;SDS011;9146;48.074;11.968;2023-04-25T04:03:41;2.60;;;2.40;;
18042;SDS011;9146;48.074;11.968;2023-04-25T04:06:07;2.80;;;2.07;;
18042;SDS011;9146;48.074;11.968;2023-04-25T04:08:35;2.30;;;2.10;;
18042;SDS011;9146;48.074;11.968;2023-04-25T04:11:02;2.20;;;2.00;;
18042;SDS011;9146;48.074;11.968;2023-04-25T04:13:31;2.40;;;2.20;;
18042;SDS011;9146;48.074;11.968;2023-04-25T04:15:58;2.10;;;2.00;;
18042;SDS011;9146;48.074;11.968;2023-04-25T04:18:25;2.83;;;2.17;;
18042;SDS011;9146;48.074;11.968;2023-04-25T04:20:52;3.70;;;2.60;;
18042;SDS011;9146;48.074;11.968;2023-04-25T04:23:19;3.43;;;2.67;;
18042;SDS011;9146;48.074;11.968;2023-04-25T04:25:47;2.63;;;2.43;;
18042;SDS011;9146;48.074;11.968;2023-04-25T04:28:14;4.23;;;2.80;;
18042;SDS011;9146;48.074;11.968;2023-04-25T04:30:44;3.27;;;2.93;;
18042;SDS011;9146;48.074;11.968;2023-04-25T04:33:12;3.83;;;2.60;;
18042;SDS011;9146;48.074;11.968;2023-04-25T04:35:40;4.13;;;2.50;;
18042;SDS011;9146;48.074;11.968;2023-04-25T04:38:08;2.20;;;2.00;;
18042;SDS011;9146;48.074;11.968;2023-04-25T04:40:35;3.40;;;2.57;;
18042;SDS011;9146;48.074;11.968;2023-04-25T04:43:02;7.37;;;3.00;;
18042;SDS011;9146;48.074;11.968;2023-04-25T04:45:29;2.47;;;2.37;;
18042;SDS011;9146;48.074;11.968;2023-04-25T04:47:57;4.10;;;2.53;;
18042;SDS011;9146;48.074;11.968;2023-04-25T04:50:24;3.43;;;2.40;;
18042;SDS011;9146;48.074;11.968;2023-04-25T04:52:52;4.53;;;2.80;;
18042;SDS011;9146;48.074;11.968;2023-04-25T04:55:20;3.10;;;2.90;;
18042;SDS011;9146;48.074;11.968;2023-04-25T04:57:47;3.87;;;3.47;;
18042;SDS011;9146;48.074;11.968;2023-04-25T05:00:15;3.40;;;2.43;;
18042;SDS011;9146;48.074;11.968;2023-04-25T05:02:42;3.03;;;2.73;;
18042;SDS011;9146;48.074;11.968;2023-04-25T05:05:10;3.13;;;2.40;;
18042;SDS011;9146;48.074;11.968;2023-04-25T05:07:37;2.60;;;2.40;;
18042;SDS011;9146;48.074;11.968;2023-04-25T05:10:04;1.90;;;1.73;;
18042;SDS011;9146;48.074;11.968;2023-04-25T05:12:32;2.30;;;2.10;;
18042;SDS011;9146;48.074;11.968;2023-04-25T05:14:59;2.47;;;2.03;;
18042;SDS011;9146;48.074;11.968;2023-04-25T05:17:25;2.30;;;2.13;;
18042;SDS011;9146;48.074;11.968;2023-04-25T05:19:52;2.53;;;1.83;;
18042;SDS011;9146;48.074;11.968;2023-04-25T05:22:21;3.20;;;2.30;;
18042;SDS011;9146;48.074;11.968;2023-04-25T05:24:48;2.80;;;2.60;;
18042;SDS011;9146;48.074;11.968;2023-04-25T05:27:16;4.13;;;2.40;;
18042;SDS011;9146;48.074;11.968;2023-04-25T05:29:43;3.10;;;2.90;;
18042;SDS011;9146;48.074;11.968;2023-04-25T05:32:10;2.37;;;2.27;;
18042;SDS011;9146;48.074;11.968;2023-04-25T05:34:37;3.23;;;2.93;;
18042;SDS011;9146;48.074;11.968;2023-04-25T05:37:04;3.23;;;2.97;;
18042;SDS011;9146;48.074;11.968;2023-04-25T05:39:33;3.23;;;2.57;;
18042;SDS011;9146;48.074;11.968;2023-04-25T05:42:00;2.73;;;2.13;;
18042;SDS011;9146;48.074;11.968;2023-04-25T05:44:28;4.10;;;2.03;;
18042;SDS011;9146;48.074;11.968;2023-04-25T05:46:56;2.40;;;2.20;;
18042;SDS011;9146;48.074;11.968;2023-04-25T05:49:22;4.00;;;2.00;;
18042;SDS011;9146;48.074;11.968;2023-04-25T05:51:49;3.10;;;2.90;;
18042;SDS011;9146;48.074;11.968;2023-04-25T05:54:16;2.90;;;2.70;;
18042;SDS011;9146;48.074;11.968;2023-04-25T05:56:45;3.17;;;2.87;;
18042;SDS011;9146;48.074;11.968;2023-04-25T05:59:11;2.33;;;1.90;;
18042;SDS011;9146;48.074;11.968;2023-04-25T06:01:38;4.23;;;2.37;;
18042;SDS011;9146;48.074;11.968;2023-04-25T06:04:07;2.63;;;2.10;;
18042;SDS011;9146;48.074;11.968;2023-04-25T06:06:34;2.00;;;1.90;;
18042;SDS011;9146;48.074;11.968;2023-04-25T06:09:01;2.33;;;2.10;;
18042;SDS011;9146;48.074;11.968;2023-04-25T06:11:28;2.80;;;2.23;;
18042;SDS011;9146;48.074;11.968;2023-04-25T06:13:57;4.20;;;2.37;;
18042;SDS011;9146;48.074;11.968;2023-04-25T06:16:24;2.27;;;2.10;;
18042;SDS011;9146;48.074;11.968;2023-04-25T06:18:51;4.17;;;2.30;;
18042;SDS011;9146;48.074;11.968;2023-04-25T06:21:17;2.53;;;2.20;;
18042;SDS011;9146;48.074;11.968;2023-04-25T06:23:44;2.50;;;2.30;;
18042;SDS011;9146;48.074;11.968;2023-04-25T06:26:11;2.03;;;1.93;;
18042;SDS011;9146;48.074;11.968;2023-04-25T06:28:38;3.07;;;1.97;;
18042;SDS011;9146;48.074;11.968;2023-04-25T06:31:06;2.40;;;2.10;;
18042;SDS011;9146;48.074;11.968;2023-04-25T06:33:34;5.03;;;1.80;;
18042;SDS011;9146;48.074;11.968;2023-04-25T06:36:00;3.60;;;2.20;;
18042;SDS011;9146;48.074;11.968;2023-04-25T06:38:27;1.83;;;1.73;;
18042;SDS011;9146;48.074;11.968;2023-04-25T06:40:54;3.97;;;2.70;;
18042;SDS011;9146;48.074;11.968;2023-04-25T06:43:21;2.80;;;2.30;;
18042;SDS011;9146;48.074;11.968;2023-04-25T06:45:48;2.30;;;2.10;;
18042;SDS011;9146;48.074;11.968;2023-04-25T06:48:16;4.87;;;2.60;;
18042;SDS011;9146;48.074;11.968;2023-04-25T06:50:43;8.77;;;1.87;;
18042;SDS011;9146;48.074;11.968;2023-04-25T06:53:10;3.07;;;1.83;;
18042;SDS011;9146;48.074;11.968;2023-04-25T06:55:37;2.20;;;2.10;;
18042;SDS011;9146;48.074;11.968;2023-04-25T06:58:04;2.30;;;2.10;;
18042;SDS011;9146;48.074;11.968;2023-04-25T07:00:32;3.90;;;2.23;;
18042;SDS011;9146;48.074;11.968;2023-04-25T07:02:59;3.10;;;2.10;;
18042;SDS011;9146;48.074;11.968;2023-04-25T07:05:27;1.73;;;1.63;;
18042;SDS011;9146;48.074;11.968;2023-04-25T07:07:54;2.67;;;1.87;;
18042;SDS011;9146;48.074;11.968;2023-04-25T07:10:21;1.70;;;1.60;;
18042;SDS011;9146;48.074;11.968;2023-04-25T07:12:48;1.83;;;1.70;;
18042;SDS011;9146;48.074;11.968;2023-04-25T07:15:15;2.10;;;2.00;;
18042;SDS011;9146;48.074;11.968;2023-04-25T07:17:42;1.80;;;1.70;;
18042;SDS011;9146;48.074;11.968;2023-04-25T07:20:09;6.13;;;1.93;;
18042;SDS011;9146;48.074;11.968;2023-04-25T07:22:38;7.50;;;2.00;;
18042;SDS011;9146;48.074;11.968;2023-04-25T07:25:07;2.37;;;2.17;;
18042;SDS011;9146;48.074;11.968;2023-04-25T07:27:34;1.60;;;1.50;;
18042;SDS011;9146;48.074;11.968;2023-04-25T07:30:01;3.07;;;2.00;;
18042;SDS011;9146;48.074;11.968;2023-04-25T07:32:29;2.27;;;1.73;;
18042;SDS011;9146;48.074;11.968;2023-04-25T07:34:56;3.00;;;2.23;;
18042;SDS011;9146;48.074;11.968;2023-04-25T07:37:23;10.47;;;2.40;;
18042;SDS011;9146;48.074;11.968;2023-04-25T07:39:51;5.77;;;2.17;;
18042;SDS011;9146;48.074;11.968;2023-04-25T07:42:18;1.77;;;1.70;;
18042;SDS011;9146;48.074;11.968;2023-04-25T07:44:46;6.80;;;2.10;;
18042;SDS011;9146;48.074;11.968;2023-04-25T07:47:13;1.97;;;1.87;;
18042;SDS011;9146;48.074;11.968;2023-04-25T07:49:40;1.90;;;1.77;;
18042;SDS011;9146;48.074;11.968;2023-04-25T07:52:07;1.77;;;1.67;;
18042;SDS011;9146;48.074;11.968;2023-04-25T07:54:34;1.80;;;1.63;;
18042;SDS011;9146;48.074;11.968;2023-04-25T07:57:02;9.40;;;1.90;;
18042;SDS011;9146;48.074;11.968;2023-04-25T07:59:31;2.60;;;1.67;;
18042;SDS011;9146;48.074;11.968;2023-04-25T08:01:58;1.93;;;1.60;;
18042;SDS011;9146;48.074;11.968;2023-04-25T08:04:26;2.00;;;1.90;;
18042;SDS011;9146;48.074;11.968;2023-04-25T08:06:53;3.70;;;2.50;;
18042;SDS011;9146;48.074;11.968;2023-04-25T08:09:20;1.83;;;1.73;;
18042;SDS011;9146;48.074;11.968;2023-04-25T08:11:47;4.20;;;2.17;;
18042;SDS011;9146;48.074;11.968;2023-04-25T08:14:16;3.00;;;1.73;;
18042;SDS011;9146;48.074;11.968;2023-04-25T08:16:43;1.70;;;1.60;;
18042;SDS011;9146;48.074;11.968;2023-04-25T08:19:10;3.10;;;1.93;;
18042;SDS011;9146;48.074;11.968;2023-04-25T08:21:37;3.30;;;2.10;;
18042;SDS011;9146;48.074;11.968;2023-04-25T08:24:04;2.70;;;1.90;;
18042;SDS011;9146;48.074;11.968;2023-04-25T08:26:31;1.73;;;1.63;;
18042;SDS011;9146;48.074;11.968;2023-04-25T08:28:59;1.83;;;1.73;;
18042;SDS011;9146;48.074;11.968;2023-04-25T08:31:27;3.47;;;3.17;;
18042;SDS011;9146;48.074;11.968;2023-04-25T08:33:54;2.70;;;1.70;;
18042;SDS011;9146;48.074;11.968;2023-04-25T08:36:21;2.13;;;1.93;;
18042;SDS011;9146;48.074;11.968;2023-04-25T08:38:49;3.93;;;2.00;;
18042;SDS011;9146;48.074;11.968;2023-04-25T08:41:16;3.83;;;1.73;;
18042;SDS011;9146;48.074;11.968;2023-04-25T08:43:43;2.37;;;1.90;;
18042;SDS011;9146;48.074;11.968;2023-04-25T08:46:12;2.03;;;1.83;;
18042;SDS011;9146;48.074;11.968;2023-04-25T08:48:45;1.90;;;1.80;;
18042;SDS011;9146;48.074;11.968;2023-04-25T08:51:14;2.50;;;2.00;;
18042;SDS011;9146;48.074;11.968;2023-04-25T08:53:48;2.10;;;2.00;;
18042;SDS011;9146;48.074;11.968;2023-04-25T08:56:18;2.73;;;1.83;;
18042;SDS011;9146;48.074;11.968;2023-04-25T08:58:48;2.03;;;1.70;;
18042;SDS011;9146;48.074;11.968;2023-04-25T09:01:15;5.33;;;1.70;;
18042;SDS011;9146;48.074;11.968;2023-04-25T09:03:47;2.03;;;1.87;;
18042;SDS011;9146;48.074;11.968;2023-04-25T09:06:15;5.03;;;2.10;;
18042;SDS011;9146;48.074;11.968;2023-04-25T09:08:44;4.23;;;2.20;;
18042;SDS011;9146;48.074;11.968;2023-04-25T09:11:11;1.83;;;1.73;;
18042;SDS011;9146;48.074;11.968;2023-04-25T09:13:39;5.13;;;2.03;;
18042;SDS011;9146;48.074;11.968;2023-04-25T09:16:06;2.70;;;1.67;;
18042;SDS011;9146;48.074;11.968;2023-04-25T09:18:34;2.00;;;1.90;;
18042;SDS011;9146;48.074;11.968;2023-04-25T09:21:06;5.13;;;2.30;;
18042;SDS011;9146;48.074;11.968;2023-04-25T09:23:38;1.97;;;1.87;;
18042;SDS011;9146;48.074;11.968;2023-04-25T09:26:06;1.90;;;1.80;;
18042;SDS011;9146;48.074;11.968;2023-04-25T09:28:34;2.13;;;2.03;;
18042;SDS011;9146;48.074;11.968;2023-04-25T09:31:02;1.80;;;1.70;;
18042;SDS011;9146;48.074;11.968;2023-04-25T09:33:30;1.93;;;1.50;;
18042;SDS011;9146;48.074;11.968;2023-04-25T09:36:02;1.80;;;1.70;;
18042;SDS011;9146;48.074;11.968;2023-04-25T09:38:31;2.80;;;1.80;;
18042;SDS011;9146;48.074;11.968;2023-04-25T09:40:59;4.47;;;2.53;;
18042;SDS011;9146;48.074;11.968;2023-04-25T09:43:26;2.03;;;1.67;;
18042;SDS011;9146;48.074;11.968;2023-04-25T09:45:54;3.37;;;2.30;;
18042;SDS011;9146;48.074;11.968;2023-04-25T09:48:25;1.77;;;1.67;;
18042;SDS011;9146;48.074;11.968;2023-04-25T09:51:06;2.10;;;1.60;;
18042;SDS011;9146;48.074;11.968;2023-04-25T09:53:35;2.27;;;1.60;;
18042;SDS011;9146;48.074;11.968;2023-04-25T09:56:04;2.73;;;1.77;;
18042;SDS011;9146;48.074;11.968;2023-04-25T09:58:33;1.90;;;1.80;;
18042;SDS011;9146;48.074;11.968;2023-04-25T10:01:02;4.77;;;1.70;;
18042;SDS011;9146;48.074;11.968;2023-04-25T10:03:30;3.53;;;2.17;;
18042;SDS011;9146;48.074;11.968;2023-04-25T10:05:59;1.77;;;1.67;;
18042;SDS011;9146;48.074;11.968;2023-04-25T10:08:29;2.50;;;1.90;;
18042;SDS011;9146;48.074;11.968;2023-04-25T10:11:01;2.43;;;2.10;;
18042;SDS011;9146;48.074;11.968;2023-04-25T10:13:29;2.40;;;1.70;;
18042;SDS011;9146;48.074;11.968;2023-04-25T10:15:57;2.13;;;1.70;;
18042;SDS011;9146;48.074;11.968;2023-04-25T10:18:25;1.70;;;1.60;;
18042;SDS011;9146;48.074;11.968;2023-04-25T10:20:53;1.93;;;1.60;;
18042;SDS011;9146;48.074;11.968;2023-04-25T10:23:21;2.17;;;1.97;;
18042;SDS011;9146;48.074;11.968;2023-04-25T10:25:49;3.60;;;1.97;;
18042;SDS011;9146;48.074;11.968;2023-04-25T10:28:18;3.53;;;1.73;;
18042;SDS011;9146;48.074;11.968;2023-04-25T10:33:35;1.70;;;1.60;;
18042;SDS011;9146;48.074;11.968;2023-04-25T10:36:09;2.50;;;1.47;;
18042;SDS011;9146;48.074;11.968;2023-04-25T10:38:37;2.00;;;1.60;;
18042;SDS011;9146;48.074;11.968;2023-04-25T10:41:05;2.10;;;1.90;;
18042;SDS011;9146;48.074;11.968;2023-04-25T10:43:36;3.87;;;2.03;;
18042;SDS011;9146;48.074;11.968;2023-04-25T10:46:13;3.73;;;1.60;;
18042;SDS011;9146;48.074;11.968;2023-04-25T10:48:45;2.30;;;1.80;;
18042;SDS011;9146;48.074;11.968;2023-04-25T10:51:18;1.70;;;1.60;;
18042;SDS011;9146;48.074;11.968;2023-04-25T10:53:46;1.50;;;1.30;;
18042;SDS011;9146;48.074;11.968;2023-04-25T10:56:22;1.47;;;1.37;;
18042;SDS011;9146;48.074;11.968;2023-04-25T10:58:53;1.70;;;1.60;;
18042;SDS011;9146;48.074;11.968;2023-04-25T11:01:35;3.37;;;1.40;;
18042;SDS011;9146;48.074;11.968;2023-04-25T11:04:02;3.57;;;1.80;;
18042;SDS011;9146;48.074;11.968;2023-04-25T11:06:32;4.53;;;2.17;;
18042;SDS011;9146;48.074;11.968;2023-04-25T11:09:10;1.80;;;1.67;;
18042;SDS011;9146;48.074;11.968;2023-04-25T11:11:39;5.90;;;1.97;;
18042;SDS011;9146;48.074;11.968;2023-04-25T11:14:07;1.83;;;1.60;;
18042;SDS011;9146;48.074;11.968;2023-04-25T11:16:34;2.23;;;1.70;;
18042;SDS011;9146;48.074;11.968;2023-04-25T11:19:02;1.57;;;1.40;;
18042;SDS011;9146;48.074;11.968;2023-04-25T11:21:29;1.70;;;1.60;;
18042;SDS011;9146;48.074;11.968;2023-04-25T11:23:57;3.23;;;1.87;;
18042;SDS011;9146;48.074;11.968;2023-04-25T11:26:25;2.13;;;1.87;;
18042;SDS011;9146;48.074;11.968;2023-04-25T11:28:56;1.40;;;1.30;;
18042;SDS011;9146;48.074;11.968;2023-04-25T11:31:25;2.13;;;1.30;;
18042;SDS011;9146;48.074;11.968;2023-04-25T11:33:53;1.73;;;1.40;;
18042;SDS011;9146;48.074;11.968;2023-04-25T11:36:22;1.83;;;1.70;;
18042;SDS011;9146;48.074;11.968;2023-04-25T11:38:49;8.33;;;1.97;;
18042;SDS011;9146;48.074;11.968;2023-04-25T11:41:17;2.43;;;1.77;;
18042;SDS011;9146;48.074;11.968;2023-04-25T11:43:45;2.80;;;1.87;;
18042;SDS011;9146;48.074;11.968;2023-04-25T11:46:12;3.00;;;2.80;;
18042;SDS011;9146;48.074;11.968;2023-04-25T11:48:41;3.40;;;2.70;;
18042;SDS011;9146;48.074;11.968;2023-04-25T11:51:09;5.10;;;2.40;;
18042;SDS011;9146;48.074;11.968;2023-04-25T11:53:36;6.10;;;3.10;;
18042;SDS011;9146;48.074;11.968;2023-04-25T11:56:08;3.40;;;2.80;;
18042;SDS011;9146;48.074;11.968;2023-04-25T12:01:28;3.93;;;3.60;;
18042;SDS011;9146;48.074;11.968;2023-04-25T12:04:09;5.37;;;4.10;;
18042;SDS011;9146;48.074;11.968;2023-04-25T12:06:37;4.00;;;3.60;;
18042;SDS011;9146;48.074;11.968;2023-04-25T12:09:07;5.63;;;4.00;;
18042;SDS011;9146;48.074;11.968;2023-04-25T12:11:40;7.13;;;4.10;;
18042;SDS011;9146;48.074;11.968;2023-04-25T12:14:07;3.73;;;3.43;;
18042;SDS011;9146;48.074;11.968;2023-04-25T12:16:41;6.60;;;3.10;;
18042;SDS011;9146;48.074;11.968;2023-04-25T12:19:09;4.83;;;3.37;;
18042;SDS011;9146;48.074;11.968;2023-04-25T12:21:39;4.90;;;2.90;;
18042;SDS011;9146;48.074;11.968;2023-04-25T12:24:10;3.60;;;2.93;;
18042;SDS011;9146;48.074;11.968;2023-04-25T12:26:48;4.80;;;2.90;;
18042;SDS011;9146;48.074;11.968;2023-04-25T12:29:20;3.00;;;2.80;;
18042;SDS011;9146;48.074;11.968;2023-04-25T12:31:48;3.20;;;3.00;;
18042;SDS011;9146;48.074;11.968;2023-04-25T12:34:17;3.23;;;3.03;;
18042;SDS011;9146;48.074;11.968;2023-04-25T12:36:45;3.40;;;3.10;;
18042;SDS011;9146;48.074;11.968;2023-04-25T12:39:15;3.40;;;2.53;;
18042;SDS011;9146;48.074;11.968;2023-04-25T12:41:43;2.87;;;2.67;;
18042;SDS011;9146;48.074;11.968;2023-04-25T12:44:10;2.20;;;2.00;;
18042;SDS011;9146;48.074;11.968;2023-04-25T12:46:38;2.40;;;2.10;;
18042;SDS011;9146;48.074;11.968;2023-04-25T12:49:06;2.80;;;2.17;;
18042;SDS011;9146;48.074;11.968;2023-04-25T12:51:35;2.67;;;2.53;;
18042;SDS011;9146;48.074;11.968;2023-04-25T12:54:03;4.70;;;2.40;;
18042;SDS011;9146;48.074;11.968;2023-04-25T12:56:32;2.13;;;2.03;;
18042;SDS011;9146;48.074;11.968;2023-04-25T12:58:59;2.80;;;2.03;;
18042;SDS011;9146;48.074;11.968;2023-04-25T13:01:26;2.57;;;2.37;;
18042;SDS011;9146;48.074;11.968;2023-04-25T13:03:52;2.20;;;2.10;;
18042;SDS011;9146;48.074;11.968;2023-04-25T13:06:20;1.97;;;1.87;;
18042;SDS011;9146;48.074;11.968;2023-04-25T13:08:49;2.90;;;2.70;;
18042;SDS011;9146;48.074;11.968;2023-04-25T13:11:16;2.60;;;2.40;;
18042;SDS011;9146;48.074;11.968;2023-04-25T13:13:43;2.67;;;2.47;;
18042;SDS011;9146;48.074;11.968;2023-04-25T13:16:10;3.43;;;3.13;;
18042;SDS011;9146;48.074;11.968;2023-04-25T13:18:39;2.57;;;2.37;;
18042;SDS011;9146;48.074;11.968;2023-04-25T13:21:06;2.90;;;2.70;;
18042;SDS011;9146;48.074;11.968;2023-04-25T13:23:35;2.30;;;2.10;;
18042;SDS011;9146;48.074;11.968;2023-04-25T13:26:04;2.13;;;2.03;;
18042;SDS011;9146;48.074;11.968;2023-04-25T13:28:31;2.60;;;1.90;;
18042;SDS011;9146;48.074;11.968;2023-04-25T13:30:58;1.93;;;1.83;;
18042;SDS011;9146;48.074;11.968;2023-04-25T13:33:25;4.60;;;2.90;;
18042;SDS011;9146;48.074;11.968;2023-04-25T13:35:52;1.83;;;1.60;;
18042;SDS011;9146;48.074;11.968;2023-04-25T13:38:21;1.93;;;1.83;;
18042;SDS011;9146;48.074;11.968;2023-04-25T13:40:48;1.83;;;1.73;;
18042;SDS011;9146;48.074;11.968;2023-04-25T13:43:18;2.50;;;2.23;;
18042;SDS011;9146;48.074;11.968;2023-04-25T13:45:46;1.80;;;1.70;;
18042;SDS011;9146;48.074;11.968;2023-04-25T13:48:13;1.77;;;1.67;;
18042;SDS011;9146;48.074;11.968;2023-04-25T13:50:40;4.50;;;1.90;;
18042;SDS011;9146;48.074;11.968;2023-04-25T13:53:07;2.80;;;2.60;;
18042;SDS011;9146;48.074;11.968;2023-04-25T13:55:34;2.40;;;2.17;;
18042;SDS011;9146;48.074;11.968;2023-04-25T13:58:02;2.43;;;2.30;;
18042;SDS011;9146;48.074;11.968;2023-04-25T14:00:34;2.30;;;2.10;;
18042;SDS011;9146;48.074;11.968;2023-04-25T14:03:02;3.20;;;2.47;;
18042;SDS011;9146;48.074;11.968;2023-04-25T14:05:32;2.23;;;2.13;;
18042;SDS011;9146;48.074;11.968;2023-04-25T14:08:03;3.67;;;2.30;;
18042;SDS011;9146;48.074;11.968;2023-04-25T14:10:31;2.60;;;2.40;;
18042;SDS011;9146;48.074;11.968;2023-04-25T14:12:57;4.27;;;3.17;;
18042;SDS011;9146;48.074;11.968;2023-04-25T14:15:25;2.93;;;2.63;;
18042;SDS011;9146;48.074;11.968;2023-04-25T14:17:54;2.93;;;2.73;;
18042;SDS011;9146;48.074;11.968;2023-04-25T14:20:20;4.20;;;3.30;;
18042;SDS011;9146;48.074;11.968;2023-04-25T14:22:48;3.47;;;2.77;;
18042;SDS011;9146;48.074;11.968;2023-04-25T14:25:17;2.23;;;2.03;;
18042;SDS011;9146;48.074;11.968;2023-04-25T14:27:44;2.60;;;2.40;;
18042;SDS011;9146;48.074;11.968;2023-04-25T14:30:14;2.60;;;2.40;;
18042;SDS011;9146;48.074;11.968;2023-04-25T14:32:42;2.63;;;2.43;;
18042;SDS011;9146;48.074;11.968;2023-04-25T14:35:13;2.10;;;2.00;;
18042;SDS011;9146;48.074;11.968;2023-04-25T14:37:40;2.03;;;1.93;;
18042;SDS011;9146;48.074;11.968;2023-04-25T14:40:07;1.80;;;1.70;;
18042;SDS011;9146;48.074;11.968;2023-04-25T14:42:37;1.93;;;1.70;;
18042;SDS011;9146;48.074;11.968;2023-04-25T14:45:04;2.03;;;1.67;;
18042;SDS011;9146;48.074;11.968;2023-04-25T14:47:32;4.30;;;1.60;;
18042;SDS011;9146;48.074;11.968;2023-04-25T14:50:01;1.87;;;1.77;;
18042;SDS011;9146;48.074;11.968;2023-04-25T14:52:29;2.20;;;1.70;;
18042;SDS011;9146;48.074;11.968;2023-04-25T14:54:56;5.80;;;2.30;;
18042;SDS011;9146;48.074;11.968;2023-04-25T14:57:25;3.50;;;2.50;;